createdAt,value
2018-06-21T00:00:36.272Z,82.60
2018-06-21T00:03:04.337Z,82.60
2018-06-21T00:05:32.360Z,82.70
2018-06-21T00:08:00.457Z,82.80
2018-06-21T00:10:28.589Z,82.90
2018-06-21T00:12:56.642Z,83.20
2018-06-21T00:15:24.709Z,83.40
2018-06-21T00:17:52.749Z,83.70
2018-06-21T00:20:20.805Z,84.10
2018-06-21T00:22:48.844Z,84.50
2018-06-21T00:25:16.901Z,84.70
2018-06-21T00:27:44.949Z,85.00
2018-06-21T00:30:13.076Z,85.30
2018-06-21T00:32:41.128Z,85.50
2018-06-21T00:35:09.169Z,85.70
2018-06-21T00:37:37.229Z,85.80
2018-06-21T00:40:05.284Z,85.80
2018-06-21T00:42:33.338Z,86.60
2018-06-21T00:45:01.439Z,86.10
2018-06-21T00:49:57.333Z,85.90
2018-06-21T00:52:25.385Z,86.00
2018-06-21T00:54:53.457Z,85.90
2018-06-21T00:57:21.552Z,85.70
2018-06-21T00:59:49.584Z,85.50
2018-06-21T01:04:45.644Z,85.70
2018-06-21T01:07:13.692Z,85.60
2018-06-21T01:09:41.779Z,85.50
2018-06-21T01:12:10.053Z,85.30
2018-06-21T01:14:38.149Z,85.30
2018-06-21T01:17:06.400Z,85.40
2018-06-21T01:19:34.457Z,85.50
2018-06-21T01:22:02.505Z,85.50
2018-06-21T01:24:30.536Z,85.50
2018-06-21T01:26:58.581Z,85.40
2018-06-21T01:29:26.628Z,85.60
2018-06-21T01:31:54.844Z,85.70
2018-06-21T01:34:22.894Z,85.80
2018-06-21T01:36:50.944Z,85.90
2018-06-21T01:39:19.018Z,86.10
2018-06-21T01:41:47.074Z,86.10
2018-06-21T01:44:15.185Z,85.70
2018-06-21T01:46:43.245Z,86.40
2018-06-21T01:49:11.333Z,86.60
2018-06-21T01:51:39.363Z,86.70
2018-06-21T01:54:07.401Z,86.70
2018-06-21T01:56:35.471Z,87.10
2018-06-21T01:59:03.693Z,87.20
2018-06-21T02:01:31.759Z,87.30
2018-06-21T02:03:59.796Z,87.50
2018-06-21T02:06:27.838Z,87.60
2018-06-21T02:08:55.913Z,87.60
2018-06-21T02:11:23.949Z,87.80
2018-06-21T02:13:52.026Z,87.80
2018-06-21T02:16:20.170Z,87.70
2018-06-21T02:18:48.247Z,87.70
2018-06-21T02:23:44.182Z,87.80
2018-06-21T02:26:12.232Z,87.80
2018-06-21T02:28:40.439Z,87.80
2018-06-21T02:31:08.609Z,87.80
2018-06-21T02:36:04.958Z,88.50
2018-06-21T02:38:33.100Z,88.00
2018-06-21T02:41:01.129Z,88.10
2018-06-21T02:43:29.233Z,88.00
2018-06-21T02:45:57.334Z,88.00
2018-06-21T02:48:25.344Z,87.80
2018-06-21T02:50:53.433Z,87.70
2018-06-21T02:53:21.493Z,87.50
2018-06-21T02:55:49.554Z,88.10
2018-06-21T02:58:17.650Z,87.40
2018-06-21T03:00:45.700Z,87.00
2018-06-21T03:03:13.753Z,86.50
2018-06-21T03:05:41.919Z,86.20
2018-06-21T03:08:09.967Z,86.30
2018-06-21T03:13:05.964Z,87.30
2018-06-21T03:15:34.020Z,86.90
2018-06-21T03:18:02.096Z,86.90
2018-06-21T03:20:30.152Z,87.20
2018-06-21T03:22:58.173Z,87.00
2018-06-21T03:25:26.224Z,87.60
2018-06-21T03:27:54.273Z,87.10
2018-06-21T03:30:22.332Z,87.90
2018-06-21T03:37:47.165Z,88.10
2018-06-21T03:40:15.201Z,88.50
2018-06-21T03:42:43.425Z,88.40
2018-06-21T03:45:11.484Z,87.50
2018-06-21T03:47:39.537Z,87.20
2018-06-21T03:50:07.598Z,87.20
2018-06-21T03:52:35.624Z,87.60
2018-06-21T03:55:03.684Z,88.60
2018-06-21T03:57:31.811Z,88.70
2018-06-21T03:59:59.904Z,88.50
2018-06-21T04:02:27.933Z,88.80
2018-06-21T04:07:30.617Z,89.30
2018-06-21T04:09:58.688Z,89.50
2018-06-21T04:12:26.779Z,89.40
2018-06-21T04:14:54.925Z,88.70
2018-06-21T04:17:23.015Z,88.00
2018-06-21T04:19:51.105Z,86.40
2018-06-21T04:22:19.137Z,85.50
2018-06-21T04:24:47.172Z,85.00
2018-06-21T04:27:15.276Z,85.00
2018-06-21T04:29:43.309Z,84.60
2018-06-21T04:32:11.357Z,85.60
2018-06-21T04:34:39.369Z,85.50
2018-06-21T04:37:07.469Z,85.30
2018-06-21T04:39:35.568Z,85.10
2018-06-21T04:42:03.592Z,84.70
2018-06-21T04:44:31.641Z,83.70
2018-06-21T04:46:59.845Z,83.20
2018-06-21T04:49:27.975Z,82.50
2018-06-21T04:51:56.064Z,82.60
2018-06-21T04:54:24.116Z,82.90
2018-06-21T04:56:52.173Z,82.60
2018-06-21T05:01:48.077Z,79.70
2018-06-21T05:04:16.165Z,77.80
2018-06-21T05:06:44.218Z,77.70
2018-06-21T05:09:12.944Z,78.10
2018-06-21T05:11:40.977Z,78.50
2018-06-21T05:14:09.511Z,77.90
2018-06-21T05:16:37.544Z,77.30
2018-06-21T05:19:05.637Z,77.60
2018-06-21T05:21:34.112Z,78.10
2018-06-21T05:24:02.162Z,78.60
2018-06-21T05:26:30.200Z,78.70
2018-06-21T05:28:58.389Z,79.70
2018-06-21T05:33:54.375Z,82.30
2018-06-21T05:36:22.453Z,82.80
2018-06-21T05:38:50.493Z,84.60
2018-06-21T05:41:18.520Z,85.50
2018-06-21T05:43:46.578Z,85.50
2018-06-21T05:46:14.706Z,85.70
2018-06-21T05:48:42.769Z,86.10
2018-06-21T05:51:10.805Z,85.50
2018-06-21T05:53:38.853Z,85.40
2018-06-21T05:58:34.724Z,86.60
2018-06-21T06:01:02.769Z,87.40
2018-06-21T06:05:58.904Z,89.70
2018-06-21T06:08:26.960Z,90.10
2018-06-21T06:10:55.045Z,90.50
2018-06-21T06:13:23.100Z,90.60
2018-06-21T06:15:51.120Z,90.70
2018-06-21T06:18:19.177Z,90.60
2018-06-21T06:20:47.209Z,90.90
2018-06-21T06:23:15.268Z,90.90
2018-06-21T06:28:11.197Z,90.60
2018-06-21T06:33:07.206Z,90.90
2018-06-21T06:35:35.292Z,91.10
2018-06-21T06:38:03.782Z,91.00
2018-06-21T06:40:31.921Z,91.30
2018-06-21T06:42:59.964Z,91.20
2018-06-21T06:45:28.029Z,91.00
2018-06-21T06:47:56.053Z,91.10
2018-06-21T06:50:24.264Z,91.00
2018-06-21T06:52:52.364Z,91.00
2018-06-21T06:55:20.422Z,90.90
2018-06-21T06:57:48.481Z,90.80
2018-06-21T07:00:16.512Z,90.80
2018-06-21T07:05:12.478Z,90.90
2018-06-21T07:07:40.504Z,90.80
2018-06-21T07:10:08.584Z,90.80
2018-06-21T07:12:36.613Z,90.50
2018-06-21T07:15:04.819Z,90.50
2018-06-21T07:17:32.924Z,90.00
2018-06-21T07:22:28.901Z,88.60
2018-06-21T07:24:56.941Z,88.40
2018-06-21T07:27:24.974Z,86.80
2018-06-21T07:29:53.038Z,85.70
2018-06-21T07:32:21.105Z,85.60
2018-06-21T07:34:49.214Z,85.20
2018-06-21T07:37:17.276Z,84.30
2018-06-21T07:39:45.302Z,83.20
2018-06-21T07:44:41.288Z,83.10
2018-06-21T07:47:09.357Z,81.50
2018-06-21T07:49:37.398Z,81.50
2018-06-21T07:52:05.457Z,79.30
2018-06-21T07:54:33.504Z,79.40
2018-06-21T07:57:01.706Z,79.60
2018-06-21T07:59:29.741Z,78.90
2018-06-21T08:01:57.797Z,79.00
2018-06-21T08:04:25.873Z,79.30
2018-06-21T08:06:53.925Z,79.90
2018-06-21T08:09:21.997Z,78.70
2018-06-21T08:11:50.102Z,79.30
2018-06-21T08:14:18.149Z,77.50
2018-06-21T08:16:46.200Z,77.00
2018-06-21T08:19:14.245Z,76.10
2018-06-21T08:21:42.311Z,75.50
2018-06-21T08:24:10.352Z,75.80
2018-06-21T08:26:39.362Z,76.30
2018-06-21T08:29:11.576Z,76.20
2018-06-21T08:31:41.443Z,77.00
2018-06-21T08:34:10.903Z,77.00
2018-06-21T08:36:41.601Z,76.90
2018-06-21T08:39:11.858Z,73.90
2018-06-21T08:41:42.487Z,72.50
2018-06-21T08:44:13.546Z,71.90
2018-06-21T08:46:44.317Z,71.70
2018-06-21T08:49:15.458Z,70.90
2018-06-21T08:51:46.119Z,70.80
2018-06-21T08:54:16.671Z,70.90
2018-06-21T08:56:46.880Z,69.60
2018-06-21T08:59:17.086Z,70.10
2018-06-21T09:01:48.387Z,71.50
2018-06-21T09:04:16.440Z,71.60
2018-06-21T09:09:16.330Z,72.20
2018-06-21T09:11:46.129Z,72.90
2018-06-21T09:14:16.330Z,72.10
2018-06-21T09:16:45.153Z,73.50
2018-06-21T09:19:14.527Z,73.10
2018-06-21T09:21:43.528Z,74.50
2018-06-21T09:24:11.774Z,73.40
2018-06-21T09:26:39.796Z,72.50
2018-06-21T09:29:07.894Z,72.90
2018-06-21T09:31:36.112Z,72.10
2018-06-21T09:34:04.187Z,70.70
2018-06-21T09:39:14.540Z,73.10
2018-06-21T09:41:50.462Z,74.40
2018-06-21T09:44:35.257Z,72.70
2018-06-21T09:47:08.738Z,73.80
2018-06-21T09:49:37.224Z,77.50
2018-06-21T09:52:06.324Z,78.80
2018-06-21T09:54:36.442Z,81.70
2018-06-21T09:57:04.540Z,82.60
2018-06-21T09:59:32.604Z,84.20
2018-06-21T10:02:01.494Z,85.90
2018-06-21T10:04:29.516Z,86.10
2018-06-21T10:06:57.592Z,86.80
2018-06-21T10:14:29.129Z,86.30
2018-06-21T10:16:59.905Z,87.60
2018-06-21T10:21:58.365Z,87.80
2018-06-21T10:24:26.421Z,88.90
2018-06-21T10:26:54.457Z,88.60
2018-06-21T10:29:22.525Z,87.90
2018-06-21T10:31:50.581Z,86.90
2018-06-21T10:34:18.652Z,85.80
2018-06-21T10:36:49.150Z,85.40
2018-06-21T10:39:17.485Z,84.20
2018-06-21T10:41:45.513Z,82.60
2018-06-21T10:44:13.570Z,81.30
2018-06-21T10:49:09.848Z,74.60
2018-06-21T10:51:38.392Z,76.30
2018-06-21T10:54:09.732Z,75.60
2018-06-21T10:56:37.783Z,75.40
2018-06-21T10:59:05.832Z,75.90
2018-06-21T11:01:33.913Z,75.70
2018-06-21T11:04:01.964Z,71.60
2018-06-21T11:08:58.120Z,68.50
2018-06-21T11:13:54.036Z,66.60
2018-06-21T11:16:22.096Z,65.00
2018-06-21T11:18:50.485Z,61.40
2018-06-21T11:21:18.607Z,62.70
2018-06-21T11:23:46.575Z,62.60
2018-06-21T11:26:14.632Z,57.60
2018-06-21T11:28:42.685Z,57.40
2018-06-21T11:31:11.125Z,55.60
2018-06-21T11:33:39.204Z,58.10
2018-06-21T11:36:13.863Z,58.80
2018-06-21T11:38:42.068Z,53.60
2018-06-21T11:41:10.148Z,55.00
2018-06-21T11:43:38.205Z,52.90
2018-06-21T11:46:06.241Z,51.70
2018-06-21T11:48:34.307Z,51.00
2018-06-21T11:53:30.281Z,53.00
2018-06-21T11:55:58.372Z,52.00
2018-06-21T11:58:26.437Z,52.10
2018-06-21T12:00:54.465Z,51.40
2018-06-21T12:03:22.576Z,50.30
2018-06-21T12:05:50.553Z,49.50
2018-06-21T12:08:18.632Z,51.00
2018-06-21T12:10:46.712Z,49.10
2018-06-21T12:13:14.777Z,49.50
2018-06-21T12:15:42.828Z,48.80
2018-06-21T12:18:10.931Z,50.20
2018-06-21T12:20:39.076Z,49.90
2018-06-21T12:23:07.196Z,49.20
2018-06-21T12:25:36.911Z,51.30
2018-06-21T12:28:05.124Z,51.10
2018-06-21T12:30:33.361Z,49.50
2018-06-21T12:35:29.406Z,49.20
2018-06-21T12:37:57.501Z,47.90
2018-06-21T12:40:25.890Z,49.00
2018-06-21T12:42:53.940Z,50.00
2018-06-21T12:45:22.061Z,50.80
2018-06-21T12:47:50.140Z,50.90
2018-06-21T12:50:18.205Z,52.50
2018-06-21T12:52:46.325Z,50.70
2018-06-21T12:55:15.336Z,52.50
2018-06-21T12:57:43.389Z,52.60
2018-06-21T13:00:11.441Z,53.30
2018-06-21T13:02:39.517Z,52.80
2018-06-21T13:05:08.190Z,52.90
2018-06-21T13:07:36.269Z,53.70
2018-06-21T13:10:15.809Z,54.70
2018-06-21T13:12:59.628Z,55.30
2018-06-21T13:15:30.654Z,55.00
2018-06-21T13:18:00.124Z,55.10
2018-06-21T13:20:30.788Z,55.40
2018-06-21T13:25:31.013Z,56.60
2018-06-21T13:27:59.082Z,57.30
2018-06-21T13:30:31.744Z,57.10
2018-06-21T13:32:59.909Z,58.30
2018-06-21T13:35:35.866Z,62.10
2018-06-21T13:38:03.993Z,66.50
2018-06-21T13:40:32.046Z,69.30
2018-06-21T13:43:00.232Z,73.10
2018-06-21T13:45:28.295Z,75.30
2018-06-21T13:47:56.633Z,75.50
2018-06-21T13:50:24.893Z,75.90
2018-06-21T13:52:53.018Z,79.30
2018-06-21T13:55:21.142Z,77.60
2018-06-21T13:57:52.848Z,79.30
2018-06-21T14:00:20.877Z,78.90
2018-06-21T14:02:49.034Z,78.20
2018-06-21T14:05:17.268Z,78.00
2018-06-21T14:07:47.086Z,74.20
2018-06-21T14:10:15.204Z,73.10
2018-06-21T14:12:43.282Z,72.10
2018-06-21T14:15:11.338Z,71.80
2018-06-21T14:17:39.448Z,71.80
2018-06-21T14:20:07.568Z,75.80
2018-06-21T14:22:35.636Z,80.10
2018-06-21T14:25:03.821Z,80.90
2018-06-21T14:27:32.001Z,83.10
2018-06-21T14:30:02.715Z,83.90
2018-06-21T14:32:31.056Z,83.00
2018-06-21T14:35:05.865Z,84.00
2018-06-21T14:37:39.507Z,82.40
2018-06-21T14:40:16.102Z,82.80
2018-06-21T14:42:47.782Z,83.10
2018-06-21T14:45:19.978Z,81.60
2018-06-21T14:47:49.625Z,79.40
2018-06-21T14:50:27.681Z,81.80
2018-06-21T14:52:55.853Z,81.10
2018-06-21T14:55:24.026Z,80.50
2018-06-21T14:57:52.281Z,78.70
2018-06-21T15:00:20.327Z,80.70
2018-06-21T15:02:48.384Z,78.60
2018-06-21T15:05:16.463Z,77.10
2018-06-21T15:10:12.430Z,74.20
2018-06-21T15:12:40.524Z,71.50
2018-06-21T15:15:08.588Z,73.50
2018-06-21T15:17:36.621Z,71.00
2018-06-21T15:20:04.713Z,70.50
2018-06-21T15:22:33.005Z,69.60
2018-06-21T15:25:01.165Z,68.10
2018-06-21T15:27:29.350Z,69.10
2018-06-21T15:29:57.389Z,67.80
2018-06-21T15:32:25.441Z,66.60
2018-06-21T15:34:53.669Z,66.40
2018-06-21T15:37:21.843Z,68.10
2018-06-21T15:39:49.952Z,68.90
2018-06-21T15:42:17.993Z,68.60
2018-06-21T15:44:46.059Z,69.60
2018-06-21T15:47:14.157Z,68.10
2018-06-21T15:49:46.104Z,64.20
2018-06-21T15:52:14.349Z,62.10
2018-06-21T15:54:42.650Z,62.20
2018-06-21T15:59:38.640Z,62.50
2018-06-21T16:02:06.689Z,63.90
2018-06-21T16:04:35.001Z,62.70
2018-06-21T16:07:03.464Z,61.80
2018-06-21T16:09:31.727Z,61.80
2018-06-21T16:11:59.766Z,61.60
2018-06-21T16:14:32.405Z,58.70
2018-06-21T16:17:04.161Z,58.50
2018-06-21T16:19:32.320Z,58.40
2018-06-21T16:22:00.623Z,58.90
2018-06-21T16:24:28.750Z,59.70
2018-06-21T16:26:57.040Z,60.70
2018-06-21T16:29:25.213Z,61.30
2018-06-21T16:34:21.954Z,62.50
2018-06-21T16:36:49.985Z,60.40
2018-06-21T16:39:18.241Z,61.40
2018-06-21T16:41:46.373Z,62.20
2018-06-21T16:44:14.406Z,62.60
2018-06-21T16:46:42.564Z,63.50
2018-06-21T16:50:14.149Z,62.80
2018-06-21T16:52:42.176Z,62.70
2018-06-21T16:55:10.233Z,62.40
2018-06-21T16:57:38.493Z,64.00
2018-06-21T17:00:06.845Z,63.40
2018-06-21T17:02:34.939Z,63.40
2018-06-21T17:05:02.969Z,62.30
2018-06-21T17:07:31.068Z,62.60
2018-06-21T17:09:59.208Z,62.60
2018-06-21T17:12:28.280Z,63.00
2018-06-21T17:14:56.485Z,63.60
2018-06-21T17:17:25.548Z,63.30
2018-06-21T17:19:53.601Z,63.60
2018-06-21T17:22:21.646Z,64.30
2018-06-21T17:27:17.540Z,64.50
2018-06-21T17:29:45.622Z,68.80
2018-06-21T17:32:13.644Z,72.70
2018-06-21T17:34:41.685Z,74.80
2018-06-21T17:37:09.797Z,75.60
2018-06-21T17:39:37.921Z,75.50
2018-06-21T17:42:06.305Z,76.60
2018-06-21T17:44:34.989Z,76.30
2018-06-21T17:47:03.057Z,75.00
2018-06-21T17:49:31.136Z,76.80
2018-06-21T17:51:59.197Z,78.00
2018-06-21T17:54:27.248Z,79.10
2018-06-21T17:56:55.460Z,78.50
2018-06-21T17:59:23.598Z,78.50
2018-06-21T18:01:51.661Z,76.80
2018-06-21T18:04:19.781Z,74.70
2018-06-21T18:06:50.792Z,70.50
2018-06-21T18:09:18.864Z,72.00
2018-06-21T18:11:46.933Z,68.50
2018-06-21T18:14:15.190Z,69.30
2018-06-21T18:16:43.237Z,68.80
2018-06-21T18:19:12.451Z,70.00
2018-06-21T18:21:40.528Z,70.90
2018-06-21T18:24:08.548Z,71.50
2018-06-21T18:26:36.581Z,70.40
2018-06-21T18:29:04.686Z,71.50
2018-06-21T18:31:32.817Z,71.50
2018-06-21T18:34:00.852Z,71.30
2018-06-21T18:36:28.897Z,72.10
2018-06-21T18:38:56.941Z,73.50
2018-06-21T18:41:25.104Z,73.70
2018-06-21T18:43:53.156Z,73.70
2018-06-21T18:46:21.271Z,73.90
2018-06-21T18:48:49.373Z,74.20
2018-06-21T18:51:27.473Z,75.20
2018-06-21T18:53:56.065Z,74.50
2018-06-21T18:56:24.386Z,73.30
2018-06-21T18:58:52.497Z,73.60
2018-06-21T19:01:21.291Z,72.40
2018-06-21T19:03:54.383Z,72.20
2018-06-21T19:06:27.996Z,72.30
2018-06-21T19:09:02.641Z,71.50
2018-06-21T19:11:36.053Z,71.80
2018-06-21T19:14:04.340Z,71.20
2018-06-21T19:16:32.464Z,71.30
2018-06-21T19:19:00.733Z,71.50
2018-06-21T19:21:29.001Z,71.50
2018-06-21T19:23:57.985Z,71.30
2018-06-21T19:28:55.237Z,71.30
2018-06-21T19:31:23.306Z,72.70
2018-06-21T19:33:52.009Z,72.80
2018-06-21T19:36:24.386Z,71.90
2018-06-21T19:38:54.859Z,71.80
2018-06-21T19:41:26.527Z,72.40
2018-06-21T19:43:58.618Z,72.40
2018-06-21T19:46:27.631Z,72.10
2018-06-21T19:48:55.742Z,72.60
2018-06-21T19:51:23.969Z,73.70
2018-06-21T19:53:52.665Z,74.00
2018-06-21T19:56:20.857Z,73.70
2018-06-21T19:58:50.220Z,73.30
2018-06-21T20:01:20.522Z,73.80
2018-06-21T20:03:48.680Z,73.20
2018-06-21T20:06:17.870Z,75.00
2018-06-21T20:08:46.278Z,73.80
2018-06-21T20:11:21.183Z,74.40
2018-06-21T20:16:23.379Z,74.40
2018-06-21T20:18:53.088Z,73.80
2018-06-21T20:21:26.073Z,74.60
2018-06-21T20:23:57.734Z,74.40
2018-06-21T20:26:26.391Z,74.60
2018-06-21T20:28:55.211Z,74.00
2018-06-21T20:31:25.662Z,74.40
2018-06-21T20:33:54.212Z,74.40
2018-06-21T20:36:27.654Z,74.50
2018-06-21T20:38:56.614Z,74.80
2018-06-21T20:41:25.754Z,75.30
2018-06-21T20:43:56.490Z,75.70
2018-06-21T20:46:24.897Z,76.00
2018-06-21T20:48:53.249Z,75.60
2018-06-21T20:51:21.680Z,76.40
2018-06-21T20:53:49.887Z,77.50
2018-06-21T20:56:19.206Z,77.00
2018-06-21T20:58:47.295Z,77.90
2018-06-21T21:01:16.936Z,77.70
2018-06-21T21:03:45.439Z,78.00
2018-06-21T21:06:13.644Z,78.20
2018-06-21T21:08:45.547Z,79.40
2018-06-21T21:11:13.815Z,80.20
2018-06-21T21:13:42.671Z,80.70
2018-06-21T21:16:10.854Z,81.20
2018-06-21T21:18:39.263Z,81.90
2018-06-21T21:21:09.249Z,81.70
2018-06-21T21:23:37.560Z,82.00
2018-06-21T21:26:06.553Z,82.30
2018-06-21T21:28:35.231Z,82.40
2018-06-21T21:33:31.694Z,82.40
2018-06-21T21:36:01.711Z,82.50
2018-06-21T21:38:29.869Z,83.10
2018-06-21T21:41:01.811Z,83.40
2018-06-21T21:43:30.702Z,83.60
2018-06-21T21:45:59.568Z,83.70
2018-06-21T21:48:28.128Z,84.00
2018-06-21T21:50:56.360Z,85.20
2018-06-21T21:53:24.595Z,85.80
2018-06-21T21:55:58.339Z,86.00
2018-06-21T21:58:29.113Z,86.40
2018-06-21T22:01:03.258Z,86.50
2018-06-21T22:03:35.346Z,86.90
2018-06-21T22:06:06.393Z,87.10
2018-06-21T22:08:38.703Z,87.50
2018-06-21T22:11:13.130Z,87.50
2018-06-21T22:13:42.269Z,87.90
2018-06-21T22:16:11.215Z,87.50
2018-06-21T22:18:40.382Z,87.80
2018-06-21T22:21:08.533Z,87.60
2018-06-21T22:23:36.669Z,88.10
2018-06-21T22:26:04.881Z,88.40
2018-06-21T22:28:32.981Z,88.70
2018-06-21T22:31:01.261Z,88.80
2018-06-21T22:33:29.360Z,89.00
2018-06-21T22:35:57.456Z,89.30
2018-06-21T22:38:25.516Z,89.50
2018-06-21T22:40:53.551Z,89.60
2018-06-21T22:43:21.785Z,89.40
2018-06-21T22:45:50.007Z,89.40
2018-06-21T22:48:18.062Z,89.50
2018-06-21T22:50:46.100Z,89.40
2018-06-21T22:53:14.380Z,89.40
2018-06-21T22:58:10.502Z,90.20
2018-06-21T23:00:38.557Z,90.00
2018-06-21T23:03:06.646Z,90.10
2018-06-21T23:05:34.742Z,90.30
2018-06-21T23:08:04.023Z,90.30
2018-06-21T23:10:32.594Z,90.40
2018-06-21T23:13:00.698Z,90.30
2018-06-21T23:15:29.044Z,90.40
2018-06-21T23:17:57.332Z,90.30
2018-06-21T23:20:25.482Z,90.40
2018-06-21T23:22:53.511Z,90.50
2018-06-21T23:25:21.552Z,90.60
2018-06-21T23:27:49.734Z,90.40
2018-06-21T23:30:17.918Z,90.50
2018-06-21T23:32:45.968Z,90.50
2018-06-21T23:35:19.565Z,90.30
2018-06-21T23:37:47.799Z,90.50
2018-06-21T23:40:15.830Z,90.40
2018-06-21T23:45:12.642Z,90.50
2018-06-21T23:47:40.690Z,90.60
2018-06-21T23:50:08.847Z,90.70
2018-06-21T23:52:37.463Z,90.60
2018-06-21T23:55:05.722Z,90.60
